sensor_id;sensor_type;location;lat;lon;timestamp;P1;durP1;ratioP1;P2;durP2;ratioP2
2872;SDS011;1444;49.166;7.312;2023-11-21T00:00:15;3.03;;;1.73;;
2872;SDS011;1444;49.166;7.312;2023-11-21T00:02:44;16.83;;;2.20;;
2872;SDS011;1444;49.166;7.312;2023-11-21T00:05:11;6.60;;;2.60;;
2872;SDS011;1444;49.166;7.312;2023-11-21T00:07:40;5.67;;;2.10;;
2872;SDS011;1444;49.166;7.312;2023-11-21T00:10:07;9.00;;;2.20;;
2872;SDS011;1444;49.166;7.312;2023-11-21T00:12:35;30.13;;;3.00;;
2872;SDS011;1444;49.166;7.312;2023-11-21T00:15:03;5.67;;;2.30;;
2872;SDS011;1444;49.166;7.312;2023-11-21T00:17:37;3.20;;;1.37;;
2872;SDS011;1444;49.166;7.312;2023-11-21T00:20:06;2.70;;;1.60;;
2872;SDS011;1444;49.166;7.312;2023-11-21T00:22:47;3.10;;;1.43;;
2872;SDS011;1444;49.166;7.312;2023-11-21T00:25:14;13.97;;;2.63;;
2872;SDS011;1444;49.166;7.312;2023-11-21T00:27:51;3.93;;;1.30;;
2872;SDS011;1444;49.166;7.312;2023-11-21T00:30:19;9.30;;;2.30;;
2872;SDS011;1444;49.166;7.312;2023-11-21T00:32:47;3.07;;;1.47;;
2872;SDS011;1444;49.166;7.312;2023-11-21T00:35:15;4.13;;;2.10;;
2872;SDS011;1444;49.166;7.312;2023-11-21T00:37:42;10.20;;;1.73;;
2872;SDS011;1444;49.166;7.312;2023-11-21T00:40:09;4.73;;;1.60;;
2872;SDS011;1444;49.166;7.312;2023-11-21T00:42:37;6.33;;;2.00;;
2872;SDS011;1444;49.166;7.312;2023-11-21T00:45:04;8.93;;;2.40;;
2872;SDS011;1444;49.166;7.312;2023-11-21T00:47:32;3.20;;;1.60;;
2872;SDS011;1444;49.166;7.312;2023-11-21T00:49:59;5.20;;;2.40;;
2872;SDS011;1444;49.166;7.312;2023-11-21T00:52:27;3.10;;;1.53;;
2872;SDS011;1444;49.166;7.312;2023-11-21T00:54:53;5.30;;;2.17;;
2872;SDS011;1444;49.166;7.312;2023-11-21T00:57:20;9.20;;;2.00;;
2872;SDS011;1444;49.166;7.312;2023-11-21T00:59:47;11.33;;;2.20;;
2872;SDS011;1444;49.166;7.312;2023-11-21T01:02:14;3.00;;;2.00;;
2872;SDS011;1444;49.166;7.312;2023-11-21T01:04:42;47.27;;;4.20;;
2872;SDS011;1444;49.166;7.312;2023-11-21T01:07:08;7.70;;;2.00;;
2872;SDS011;1444;49.166;7.312;2023-11-21T01:09:37;2.80;;;2.00;;
2872;SDS011;1444;49.166;7.312;2023-11-21T01:12:04;12.53;;;2.43;;
2872;SDS011;1444;49.166;7.312;2023-11-21T01:14:31;6.13;;;2.73;;
2872;SDS011;1444;49.166;7.312;2023-11-21T01:16:58;7.43;;;2.10;;
2872;SDS011;1444;49.166;7.312;2023-11-21T01:19:25;4.63;;;2.80;;
2872;SDS011;1444;49.166;7.312;2023-11-21T01:21:53;4.43;;;2.40;;
2872;SDS011;1444;49.166;7.312;2023-11-21T01:24:20;4.93;;;2.50;;
2872;SDS011;1444;49.166;7.312;2023-11-21T01:26:48;10.83;;;2.50;;
2872;SDS011;1444;49.166;7.312;2023-11-21T01:29:15;5.80;;;2.33;;
2872;SDS011;1444;49.166;7.312;2023-11-21T01:31:42;3.90;;;2.13;;
2872;SDS011;1444;49.166;7.312;2023-11-21T01:34:09;2.60;;;2.20;;
2872;SDS011;1444;49.166;7.312;2023-11-21T01:36:36;3.00;;;2.60;;
2872;SDS011;1444;49.166;7.312;2023-11-21T01:39:03;14.40;;;2.60;;
2872;SDS011;1444;49.166;7.312;2023-11-21T01:41:33;3.40;;;2.03;;
2872;SDS011;1444;49.166;7.312;2023-11-21T01:44:02;7.53;;;2.70;;
2872;SDS011;1444;49.166;7.312;2023-11-21T01:46:32;9.67;;;2.50;;
2872;SDS011;1444;49.166;7.312;2023-11-21T01:48:59;7.50;;;2.97;;
2872;SDS011;1444;49.166;7.312;2023-11-21T01:51:26;2.90;;;2.20;;
2872;SDS011;1444;49.166;7.312;2023-11-21T01:53:54;5.30;;;3.30;;
2872;SDS011;1444;49.166;7.312;2023-11-21T01:56:21;3.40;;;2.53;;
2872;SDS011;1444;49.166;7.312;2023-11-21T01:58:48;5.20;;;3.07;;
2872;SDS011;1444;49.166;7.312;2023-11-21T02:01:17;5.13;;;2.93;;
2872;SDS011;1444;49.166;7.312;2023-11-21T02:03:44;4.30;;;2.90;;
2872;SDS011;1444;49.166;7.312;2023-11-21T02:06:11;8.37;;;3.20;;
2872;SDS011;1444;49.166;7.312;2023-11-21T02:08:38;12.60;;;3.50;;
2872;SDS011;1444;49.166;7.312;2023-11-21T02:11:07;8.10;;;3.40;;
2872;SDS011;1444;49.166;7.312;2023-11-21T02:13:37;9.47;;;3.60;;
2872;SDS011;1444;49.166;7.312;2023-11-21T02:16:08;5.33;;;3.50;;
2872;SDS011;1444;49.166;7.312;2023-11-21T02:18:37;4.43;;;3.00;;
2872;SDS011;1444;49.166;7.312;2023-11-21T02:21:04;7.67;;;2.73;;
2872;SDS011;1444;49.166;7.312;2023-11-21T02:23:32;8.30;;;3.10;;
2872;SDS011;1444;49.166;7.312;2023-11-21T02:25:59;4.87;;;3.10;;
2872;SDS011;1444;49.166;7.312;2023-11-21T02:28:29;6.03;;;3.10;;
2872;SDS011;1444;49.166;7.312;2023-11-21T02:30:56;10.10;;;3.57;;
2872;SDS011;1444;49.166;7.312;2023-11-21T02:33:24;4.87;;;2.63;;
2872;SDS011;1444;49.166;7.312;2023-11-21T02:35:51;5.40;;;3.10;;
2872;SDS011;1444;49.166;7.312;2023-11-21T02:38:19;4.50;;;3.77;;
2872;SDS011;1444;49.166;7.312;2023-11-21T02:40:48;9.40;;;2.40;;
2872;SDS011;1444;49.166;7.312;2023-11-21T02:43:15;3.03;;;2.40;;
2872;SDS011;1444;49.166;7.312;2023-11-21T02:45:42;8.73;;;3.80;;
2872;SDS011;1444;49.166;7.312;2023-11-21T02:48:09;10.03;;;3.97;;
2872;SDS011;1444;49.166;7.312;2023-11-21T02:50:36;5.33;;;3.63;;
2872;SDS011;1444;49.166;7.312;2023-11-21T02:53:03;3.47;;;3.00;;
2872;SDS011;1444;49.166;7.312;2023-11-21T02:55:30;4.83;;;3.10;;
2872;SDS011;1444;49.166;7.312;2023-11-21T02:58:01;13.57;;;4.10;;
2872;SDS011;1444;49.166;7.312;2023-11-21T03:00:28;4.43;;;4.03;;
2872;SDS011;1444;49.166;7.312;2023-11-21T03:02:55;5.93;;;4.50;;
2872;SDS011;1444;49.166;7.312;2023-11-21T03:05:23;4.50;;;3.77;;
2872;SDS011;1444;49.166;7.312;2023-11-21T03:07:50;4.20;;;3.43;;
2872;SDS011;1444;49.166;7.312;2023-11-21T03:10:19;4.10;;;3.57;;
2872;SDS011;1444;49.166;7.312;2023-11-21T03:12:46;6.37;;;4.87;;
2872;SDS011;1444;49.166;7.312;2023-11-21T03:15:14;42.07;;;5.33;;
2872;SDS011;1444;49.166;7.312;2023-11-21T03:17:41;9.00;;;3.57;;
2872;SDS011;1444;49.166;7.312;2023-11-21T03:20:09;9.80;;;4.83;;
2872;SDS011;1444;49.166;7.312;2023-11-21T03:22:38;15.30;;;4.50;;
2872;SDS011;1444;49.166;7.312;2023-11-21T03:25:06;8.60;;;4.73;;
2872;SDS011;1444;49.166;7.312;2023-11-21T03:27:36;4.60;;;3.90;;
2872;SDS011;1444;49.166;7.312;2023-11-21T03:30:04;22.03;;;5.10;;
2872;SDS011;1444;49.166;7.312;2023-11-21T03:32:33;6.10;;;4.43;;
2872;SDS011;1444;49.166;7.312;2023-11-21T03:35:00;5.20;;;4.53;;
2872;SDS011;1444;49.166;7.312;2023-11-21T03:37:28;15.20;;;4.70;;
2872;SDS011;1444;49.166;7.312;2023-11-21T03:39:55;6.63;;;5.00;;
2872;SDS011;1444;49.166;7.312;2023-11-21T03:42:22;5.87;;;4.50;;
2872;SDS011;1444;49.166;7.312;2023-11-21T03:44:50;4.43;;;4.00;;
2872;SDS011;1444;49.166;7.312;2023-11-21T03:47:17;6.00;;;4.90;;
2872;SDS011;1444;49.166;7.312;2023-11-21T03:49:46;28.63;;;5.57;;
2872;SDS011;1444;49.166;7.312;2023-11-21T03:52:13;11.27;;;5.87;;
2872;SDS011;1444;49.166;7.312;2023-11-21T03:54:40;6.37;;;5.00;;
2872;SDS011;1444;49.166;7.312;2023-11-21T03:57:06;16.57;;;4.50;;
2872;SDS011;1444;49.166;7.312;2023-11-21T03:59:34;15.73;;;5.57;;
2872;SDS011;1444;49.166;7.312;2023-11-21T04:02:01;11.10;;;5.17;;
2872;SDS011;1444;49.166;7.312;2023-11-21T04:04:28;13.90;;;5.03;;
2872;SDS011;1444;49.166;7.312;2023-11-21T04:06:56;8.63;;;5.40;;
2872;SDS011;1444;49.166;7.312;2023-11-21T04:09:23;6.73;;;4.80;;
2872;SDS011;1444;49.166;7.312;2023-11-21T04:11:50;16.23;;;6.37;;
2872;SDS011;1444;49.166;7.312;2023-11-21T04:14:17;6.20;;;4.70;;
2872;SDS011;1444;49.166;7.312;2023-11-21T04:16:44;12.23;;;5.40;;
2872;SDS011;1444;49.166;7.312;2023-11-21T04:19:10;5.20;;;4.67;;
2872;SDS011;1444;49.166;7.312;2023-11-21T04:21:39;6.60;;;5.10;;
2872;SDS011;1444;49.166;7.312;2023-11-21T04:24:08;27.47;;;6.00;;
2872;SDS011;1444;49.166;7.312;2023-11-21T04:26:35;12.07;;;5.13;;
2872;SDS011;1444;49.166;7.312;2023-11-21T04:29:02;10.10;;;6.57;;
2872;SDS011;1444;49.166;7.312;2023-11-21T04:31:29;15.53;;;7.20;;
2872;SDS011;1444;49.166;7.312;2023-11-21T04:33:56;9.13;;;6.33;;
2872;SDS011;1444;49.166;7.312;2023-11-21T04:36:23;7.73;;;6.37;;
2872;SDS011;1444;49.166;7.312;2023-11-21T04:38:50;15.53;;;7.73;;
2872;SDS011;1444;49.166;7.312;2023-11-21T04:41:19;9.37;;;7.30;;
2872;SDS011;1444;49.166;7.312;2023-11-21T04:43:45;10.53;;;6.97;;
2872;SDS011;1444;49.166;7.312;2023-11-21T04:46:12;22.00;;;7.70;;
2872;SDS011;1444;49.166;7.312;2023-11-21T04:48:39;11.83;;;8.03;;
2872;SDS011;1444;49.166;7.312;2023-11-21T04:51:06;9.07;;;7.10;;
2872;SDS011;1444;49.166;7.312;2023-11-21T04:53:33;8.63;;;6.53;;
2872;SDS011;1444;49.166;7.312;2023-11-21T04:56:01;16.10;;;5.87;;
2872;SDS011;1444;49.166;7.312;2023-11-21T04:58:29;41.77;;;8.40;;
2872;SDS011;1444;49.166;7.312;2023-11-21T05:00:58;11.33;;;7.53;;
2872;SDS011;1444;49.166;7.312;2023-11-21T05:03:24;24.07;;;7.40;;
2872;SDS011;1444;49.166;7.312;2023-11-21T05:05:51;14.17;;;6.20;;
2872;SDS011;1444;49.166;7.312;2023-11-21T05:08:18;8.93;;;6.40;;
2872;SDS011;1444;49.166;7.312;2023-11-21T05:10:47;8.13;;;5.53;;
2872;SDS011;1444;49.166;7.312;2023-11-21T05:13:14;36.80;;;7.83;;
2872;SDS011;1444;49.166;7.312;2023-11-21T05:15:43;8.23;;;5.70;;
2872;SDS011;1444;49.166;7.312;2023-11-21T05:18:10;8.23;;;6.30;;
2872;SDS011;1444;49.166;7.312;2023-11-21T05:20:38;19.13;;;7.30;;
2872;SDS011;1444;49.166;7.312;2023-11-21T05:23:05;8.23;;;5.67;;
2872;SDS011;1444;49.166;7.312;2023-11-21T05:25:33;4.97;;;4.47;;
2872;SDS011;1444;49.166;7.312;2023-11-21T05:28:00;5.93;;;5.07;;
2872;SDS011;1444;49.166;7.312;2023-11-21T05:30:27;8.53;;;7.30;;
2872;SDS011;1444;49.166;7.312;2023-11-21T05:32:56;51.50;;;8.37;;
2872;SDS011;1444;49.166;7.312;2023-11-21T05:35:22;6.60;;;5.93;;
2872;SDS011;1444;49.166;7.312;2023-11-21T05:37:49;16.70;;;5.40;;
2872;SDS011;1444;49.166;7.312;2023-11-21T05:40:16;15.00;;;5.90;;
2872;SDS011;1444;49.166;7.312;2023-11-21T05:42:43;12.80;;;5.03;;
2872;SDS011;1444;49.166;7.312;2023-11-21T05:45:10;5.50;;;4.07;;
2872;SDS011;1444;49.166;7.312;2023-11-21T05:47:38;7.30;;;4.80;;
2872;SDS011;1444;49.166;7.312;2023-11-21T05:50:07;6.40;;;5.10;;
2872;SDS011;1444;49.166;7.312;2023-11-21T05:52:37;7.87;;;4.90;;
2872;SDS011;1444;49.166;7.312;2023-11-21T05:55:04;17.13;;;4.60;;
2872;SDS011;1444;49.166;7.312;2023-11-21T05:57:32;5.70;;;5.10;;
2872;SDS011;1444;49.166;7.312;2023-11-21T06:00:01;8.70;;;6.27;;
2872;SDS011;1444;49.166;7.312;2023-11-21T06:02:36;11.17;;;6.17;;
2872;SDS011;1444;49.166;7.312;2023-11-21T06:05:03;10.53;;;6.20;;
2872;SDS011;1444;49.166;7.312;2023-11-21T06:07:32;17.73;;;6.47;;
2872;SDS011;1444;49.166;7.312;2023-11-21T06:09:58;8.63;;;6.53;;
2872;SDS011;1444;49.166;7.312;2023-11-21T06:12:27;15.13;;;5.63;;
2872;SDS011;1444;49.166;7.312;2023-11-21T06:14:54;15.97;;;5.67;;
2872;SDS011;1444;49.166;7.312;2023-11-21T06:17:21;14.00;;;5.97;;
2872;SDS011;1444;49.166;7.312;2023-11-21T06:19:50;5.23;;;4.73;;
2872;SDS011;1444;49.166;7.312;2023-11-21T06:22:17;11.13;;;5.50;;
2872;SDS011;1444;49.166;7.312;2023-11-21T06:24:46;5.63;;;4.70;;
2872;SDS011;1444;49.166;7.312;2023-11-21T06:27:12;7.67;;;4.60;;
2872;SDS011;1444;49.166;7.312;2023-11-21T06:29:41;5.43;;;4.50;;
2872;SDS011;1444;49.166;7.312;2023-11-21T06:32:08;9.37;;;5.47;;
2872;SDS011;1444;49.166;7.312;2023-11-21T06:34:35;6.23;;;5.03;;
2872;SDS011;1444;49.166;7.312;2023-11-21T06:37:02;35.87;;;7.30;;
2872;SDS011;1444;49.166;7.312;2023-11-21T06:39:29;5.23;;;4.60;;
2872;SDS011;1444;49.166;7.312;2023-11-21T06:41:57;47.80;;;7.90;;
2872;SDS011;1444;49.166;7.312;2023-11-21T06:44:25;9.87;;;7.10;;
2872;SDS011;1444;49.166;7.312;2023-11-21T06:46:53;14.83;;;7.37;;
2872;SDS011;1444;49.166;7.312;2023-11-21T06:49:19;24.20;;;8.73;;
2872;SDS011;1444;49.166;7.312;2023-11-21T06:51:46;24.23;;;8.50;;
2872;SDS011;1444;49.166;7.312;2023-11-21T06:54:13;17.53;;;8.43;;
2872;SDS011;1444;49.166;7.312;2023-11-21T06:56:40;11.63;;;7.00;;
2872;SDS011;1444;49.166;7.312;2023-11-21T06:59:08;7.93;;;6.40;;
2872;SDS011;1444;49.166;7.312;2023-11-21T07:01:35;6.33;;;5.73;;
2872;SDS011;1444;49.166;7.312;2023-11-21T07:04:04;7.10;;;4.13;;
2872;SDS011;1444;49.166;7.312;2023-11-21T07:06:31;4.20;;;3.63;;
2872;SDS011;1444;49.166;7.312;2023-11-21T07:08:58;8.03;;;3.70;;
2872;SDS011;1444;49.166;7.312;2023-11-21T07:11:26;3.97;;;2.73;;
2872;SDS011;1444;49.166;7.312;2023-11-21T07:13:53;4.00;;;1.90;;
2872;SDS011;1444;49.166;7.312;2023-11-21T07:16:21;12.43;;;1.70;;
2872;SDS011;1444;49.166;7.312;2023-11-21T07:18:48;4.97;;;2.17;;
2872;SDS011;1444;49.166;7.312;2023-11-21T07:21:15;6.20;;;1.90;;
2872;SDS011;1444;49.166;7.312;2023-11-21T07:23:42;6.80;;;2.50;;
2872;SDS011;1444;49.166;7.312;2023-11-21T07:26:09;3.20;;;2.90;;
2872;SDS011;1444;49.166;7.312;2023-11-21T07:28:36;5.63;;;2.90;;
2872;SDS011;1444;49.166;7.312;2023-11-21T07:31:03;14.00;;;3.13;;
2872;SDS011;1444;49.166;7.312;2023-11-21T07:33:32;2.97;;;2.50;;
2872;SDS011;1444;49.166;7.312;2023-11-21T07:35:59;4.00;;;3.63;;
2872;SDS011;1444;49.166;7.312;2023-11-21T07:38:26;12.30;;;3.67;;
2872;SDS011;1444;49.166;7.312;2023-11-21T07:40:53;4.47;;;3.40;;
2872;SDS011;1444;49.166;7.312;2023-11-21T07:43:20;3.87;;;3.47;;
2872;SDS011;1444;49.166;7.312;2023-11-21T07:45:47;6.10;;;3.77;;
2872;SDS011;1444;49.166;7.312;2023-11-21T07:48:14;5.00;;;3.40;;
2872;SDS011;1444;49.166;7.312;2023-11-21T07:50:43;32.70;;;4.63;;
2872;SDS011;1444;49.166;7.312;2023-11-21T07:53:11;3.53;;;2.77;;
2872;SDS011;1444;49.166;7.312;2023-11-21T07:55:39;4.33;;;3.93;;
2872;SDS011;1444;49.166;7.312;2023-11-21T07:58:07;20.93;;;4.90;;
2872;SDS011;1444;49.166;7.312;2023-11-21T08:00:34;3.93;;;2.97;;
2872;SDS011;1444;49.166;7.312;2023-11-21T08:03:00;3.57;;;3.17;;
2872;SDS011;1444;49.166;7.312;2023-11-21T08:05:27;10.77;;;4.20;;
2872;SDS011;1444;49.166;7.312;2023-11-21T08:07:56;5.47;;;3.93;;
2872;SDS011;1444;49.166;7.312;2023-11-21T08:10:23;5.10;;;4.13;;
2872;SDS011;1444;49.166;7.312;2023-11-21T08:12:50;19.17;;;5.73;;
2872;SDS011;1444;49.166;7.312;2023-11-21T08:15:18;6.50;;;5.00;;
2872;SDS011;1444;49.166;7.312;2023-11-21T08:17:45;6.87;;;4.00;;
2872;SDS011;1444;49.166;7.312;2023-11-21T08:20:13;6.60;;;5.20;;
2872;SDS011;1444;49.166;7.312;2023-11-21T08:22:41;5.30;;;4.10;;
2872;SDS011;1444;49.166;7.312;2023-11-21T08:25:09;28.83;;;5.13;;
2872;SDS011;1444;49.166;7.312;2023-11-21T08:27:37;9.10;;;4.60;;
2872;SDS011;1444;49.166;7.312;2023-11-21T08:30:05;7.70;;;5.60;;
2872;SDS011;1444;49.166;7.312;2023-11-21T08:32:33;9.20;;;4.70;;
2872;SDS011;1444;49.166;7.312;2023-11-21T08:35:00;4.87;;;3.60;;
2872;SDS011;1444;49.166;7.312;2023-11-21T08:37:27;4.80;;;3.00;;
2872;SDS011;1444;49.166;7.312;2023-11-21T08:39:57;5.80;;;3.40;;
2872;SDS011;1444;49.166;7.312;2023-11-21T08:42:26;4.97;;;3.53;;
2872;SDS011;1444;49.166;7.312;2023-11-21T08:44:55;4.67;;;3.27;;
2872;SDS011;1444;49.166;7.312;2023-11-21T08:47:22;3.90;;;3.50;;
2872;SDS011;1444;49.166;7.312;2023-11-21T08:49:51;3.10;;;2.80;;
2872;SDS011;1444;49.166;7.312;2023-11-21T08:52:18;3.80;;;3.07;;
2872;SDS011;1444;49.166;7.312;2023-11-21T08:54:47;10.07;;;4.03;;
2872;SDS011;1444;49.166;7.312;2023-11-21T08:57:20;6.73;;;3.87;;
2872;SDS011;1444;49.166;7.312;2023-11-21T08:59:49;6.77;;;3.70;;
2872;SDS011;1444;49.166;7.312;2023-11-21T09:02:20;3.77;;;3.00;;
2872;SDS011;1444;49.166;7.312;2023-11-21T09:04:48;5.70;;;3.57;;
2872;SDS011;1444;49.166;7.312;2023-11-21T09:07:16;12.40;;;4.20;;
2872;SDS011;1444;49.166;7.312;2023-11-21T09:09:45;13.87;;;6.17;;
2872;SDS011;1444;49.166;7.312;2023-11-21T09:12:12;3.43;;;3.00;;
2872;SDS011;1444;49.166;7.312;2023-11-21T09:14:41;6.80;;;3.60;;
2872;SDS011;1444;49.166;7.312;2023-11-21T09:17:20;17.33;;;8.37;;
2872;SDS011;1444;49.166;7.312;2023-11-21T09:19:47;9.17;;;6.27;;
2872;SDS011;1444;49.166;7.312;2023-11-21T09:22:16;17.20;;;5.60;;
2872;SDS011;1444;49.166;7.312;2023-11-21T09:24:43;31.73;;;18.43;;
2872;SDS011;1444;49.166;7.312;2023-11-21T09:27:10;25.83;;;10.00;;
2872;SDS011;1444;49.166;7.312;2023-11-21T09:29:37;22.00;;;13.33;;
2872;SDS011;1444;49.166;7.312;2023-11-21T09:32:05;9.13;;;8.00;;
2872;SDS011;1444;49.166;7.312;2023-11-21T09:34:34;10.60;;;7.97;;
2872;SDS011;1444;49.166;7.312;2023-11-21T09:37:03;13.83;;;9.20;;
2872;SDS011;1444;49.166;7.312;2023-11-21T09:39:31;14.30;;;10.53;;
2872;SDS011;1444;49.166;7.312;2023-11-21T09:41:59;14.93;;;10.60;;
2872;SDS011;1444;49.166;7.312;2023-11-21T09:44:36;13.40;;;8.20;;
2872;SDS011;1444;49.166;7.312;2023-11-21T09:47:14;14.60;;;7.80;;
2872;SDS011;1444;49.166;7.312;2023-11-21T09:49:43;10.50;;;7.20;;
2872;SDS011;1444;49.166;7.312;2023-11-21T09:52:16;10.10;;;8.20;;
2872;SDS011;1444;49.166;7.312;2023-11-21T09:54:50;20.43;;;6.50;;
2872;SDS011;1444;49.166;7.312;2023-11-21T09:57:19;18.13;;;7.63;;
2872;SDS011;1444;49.166;7.312;2023-11-21T09:59:48;9.10;;;7.73;;
2872;SDS011;1444;49.166;7.312;2023-11-21T10:02:20;26.80;;;10.17;;
2872;SDS011;1444;49.166;7.312;2023-11-21T10:04:59;14.30;;;9.90;;
2872;SDS011;1444;49.166;7.312;2023-11-21T10:07:28;11.20;;;7.13;;
2872;SDS011;1444;49.166;7.312;2023-11-21T10:09:58;6.83;;;5.07;;
2872;SDS011;1444;49.166;7.312;2023-11-21T10:12:26;6.03;;;4.90;;
2872;SDS011;1444;49.166;7.312;2023-11-21T10:14:54;5.93;;;4.23;;
2872;SDS011;1444;49.166;7.312;2023-11-21T10:17:24;11.93;;;4.43;;
2872;SDS011;1444;49.166;7.312;2023-11-21T10:19:55;7.90;;;7.10;;
2872;SDS011;1444;49.166;7.312;2023-11-21T10:22:25;8.80;;;6.93;;
2872;SDS011;1444;49.166;7.312;2023-11-21T10:24:52;5.57;;;4.23;;
2872;SDS011;1444;49.166;7.312;2023-11-21T10:27:19;6.37;;;4.40;;
2872;SDS011;1444;49.166;7.312;2023-11-21T10:29:46;9.10;;;5.17;;
2872;SDS011;1444;49.166;7.312;2023-11-21T10:32:13;33.80;;;7.67;;
2872;SDS011;1444;49.166;7.312;2023-11-21T10:34:39;7.43;;;4.90;;
2872;SDS011;1444;49.166;7.312;2023-11-21T10:37:13;4.30;;;2.90;;
2872;SDS011;1444;49.166;7.312;2023-11-21T10:39:42;5.73;;;4.37;;
2872;SDS011;1444;49.166;7.312;2023-11-21T10:42:10;14.60;;;6.63;;
2872;SDS011;1444;49.166;7.312;2023-11-21T10:44:37;7.20;;;5.30;;
2872;SDS011;1444;49.166;7.312;2023-11-21T10:47:04;6.37;;;3.70;;
2872;SDS011;1444;49.166;7.312;2023-11-21T10:49:31;12.30;;;4.10;;
2872;SDS011;1444;49.166;7.312;2023-11-21T10:51:58;4.83;;;2.70;;
2872;SDS011;1444;49.166;7.312;2023-11-21T10:54:25;10.07;;;3.20;;
2872;SDS011;1444;49.166;7.312;2023-11-21T10:56:56;9.23;;;3.43;;
2872;SDS011;1444;49.166;7.312;2023-11-21T10:59:51;2.60;;;2.37;;
2872;SDS011;1444;49.166;7.312;2023-11-21T11:02:23;4.23;;;3.83;;
2872;SDS011;1444;49.166;7.312;2023-11-21T11:04:50;6.90;;;2.67;;
2872;SDS011;1444;49.166;7.312;2023-11-21T11:07:20;4.00;;;2.97;;
2872;SDS011;1444;49.166;7.312;2023-11-21T11:09:51;8.17;;;3.40;;
2872;SDS011;1444;49.166;7.312;2023-11-21T11:12:20;6.70;;;3.07;;
2872;SDS011;1444;49.166;7.312;2023-11-21T11:14:47;6.23;;;3.23;;
2872;SDS011;1444;49.166;7.312;2023-11-21T11:17:15;12.00;;;3.97;;
2872;SDS011;1444;49.166;7.312;2023-11-21T11:19:44;4.67;;;3.10;;
2872;SDS011;1444;49.166;7.312;2023-11-21T11:22:19;6.27;;;3.83;;
2872;SDS011;1444;49.166;7.312;2023-11-21T11:25:03;3.23;;;2.40;;
2872;SDS011;1444;49.166;7.312;2023-11-21T11:27:47;7.17;;;3.47;;
2872;SDS011;1444;49.166;7.312;2023-11-21T11:30:24;3.00;;;2.70;;
2872;SDS011;1444;49.166;7.312;2023-11-21T11:33:04;8.03;;;3.20;;
2872;SDS011;1444;49.166;7.312;2023-11-21T11:35:37;8.97;;;2.87;;
2872;SDS011;1444;49.166;7.312;2023-11-21T11:38:08;4.67;;;2.80;;
2872;SDS011;1444;49.166;7.312;2023-11-21T11:40:39;22.37;;;3.37;;
2872;SDS011;1444;49.166;7.312;2023-11-21T11:43:09;5.80;;;2.43;;
2872;SDS011;1444;49.166;7.312;2023-11-21T11:45:38;12.50;;;2.90;;
2872;SDS011;1444;49.166;7.312;2023-11-21T11:48:07;5.63;;;2.83;;
2872;SDS011;1444;49.166;7.312;2023-11-21T11:50:41;3.00;;;2.70;;
2872;SDS011;1444;49.166;7.312;2023-11-21T11:53:28;4.37;;;2.23;;
2872;SDS011;1444;49.166;7.312;2023-11-21T11:58:44;18.90;;;3.47;;
2872;SDS011;1444;49.166;7.312;2023-11-21T12:01:13;4.70;;;2.43;;
2872;SDS011;1444;49.166;7.312;2023-11-21T12:03:42;3.07;;;2.30;;
2872;SDS011;1444;49.166;7.312;2023-11-21T12:06:09;10.30;;;2.87;;
2872;SDS011;1444;49.166;7.312;2023-11-21T12:08:37;11.63;;;3.33;;
2872;SDS011;1444;49.166;7.312;2023-11-21T12:11:04;3.30;;;3.00;;
2872;SDS011;1444;49.166;7.312;2023-11-21T12:13:31;5.90;;;3.07;;
2872;SDS011;1444;49.166;7.312;2023-11-21T12:16:00;2.70;;;2.00;;
2872;SDS011;1444;49.166;7.312;2023-11-21T12:18:27;4.03;;;1.90;;
2872;SDS011;1444;49.166;7.312;2023-11-21T12:20:56;5.20;;;2.10;;
2872;SDS011;1444;49.166;7.312;2023-11-21T12:23:23;5.10;;;2.03;;
2872;SDS011;1444;49.166;7.312;2023-11-21T12:25:50;19.13;;;2.90;;
2872;SDS011;1444;49.166;7.312;2023-11-21T12:28:17;3.73;;;1.77;;
2872;SDS011;1444;49.166;7.312;2023-11-21T12:30:44;12.93;;;3.10;;
2872;SDS011;1444;49.166;7.312;2023-11-21T12:33:14;7.30;;;4.33;;
2872;SDS011;1444;49.166;7.312;2023-11-21T12:35:42;3.47;;;3.17;;
2872;SDS011;1444;49.166;7.312;2023-11-21T12:38:09;4.10;;;3.30;;
2872;SDS011;1444;49.166;7.312;2023-11-21T12:40:36;4.43;;;3.43;;
2872;SDS011;1444;49.166;7.312;2023-11-21T12:43:03;8.50;;;3.67;;
2872;SDS011;1444;49.166;7.312;2023-11-21T12:45:32;3.23;;;2.93;;
2872;SDS011;1444;49.166;7.312;2023-11-21T12:47:59;5.40;;;4.90;;
2872;SDS011;1444;49.166;7.312;2023-11-21T12:50:34;3.47;;;3.17;;
2872;SDS011;1444;49.166;7.312;2023-11-21T12:53:02;3.17;;;2.97;;
2872;SDS011;1444;49.166;7.312;2023-11-21T12:55:30;4.37;;;2.87;;
2872;SDS011;1444;49.166;7.312;2023-11-21T12:58:02;3.80;;;2.27;;
2872;SDS011;1444;49.166;7.312;2023-11-21T13:00:34;12.30;;;3.03;;
2872;SDS011;1444;49.166;7.312;2023-11-21T13:03:03;4.57;;;2.40;;
2872;SDS011;1444;49.166;7.312;2023-11-21T13:05:34;3.47;;;2.87;;
2872;SDS011;1444;49.166;7.312;2023-11-21T13:08:04;3.40;;;2.87;;
2872;SDS011;1444;49.166;7.312;2023-11-21T13:10:33;6.90;;;2.60;;
2872;SDS011;1444;49.166;7.312;2023-11-21T13:13:01;2.60;;;1.90;;
2872;SDS011;1444;49.166;7.312;2023-11-21T13:15:30;19.50;;;3.27;;
2872;SDS011;1444;49.166;7.312;2023-11-21T13:17:58;2.77;;;2.27;;
2872;SDS011;1444;49.166;7.312;2023-11-21T13:20:25;4.80;;;2.60;;
2872;SDS011;1444;49.166;7.312;2023-11-21T13:22:54;3.30;;;2.30;;
2872;SDS011;1444;49.166;7.312;2023-11-21T13:25:24;1.90;;;1.53;;
2872;SDS011;1444;49.166;7.312;2023-11-21T13:27:53;17.17;;;3.67;;
2872;SDS011;1444;49.166;7.312;2023-11-21T13:30:20;3.43;;;2.60;;
2872;SDS011;1444;49.166;7.312;2023-11-21T13:32:51;3.87;;;3.00;;
2872;SDS011;1444;49.166;7.312;2023-11-21T13:35:22;3.77;;;3.30;;
2872;SDS011;1444;49.166;7.312;2023-11-21T13:37:57;21.63;;;4.60;;
2872;SDS011;1444;49.166;7.312;2023-11-21T13:40:31;11.40;;;3.53;;
2872;SDS011;1444;49.166;7.312;2023-11-21T13:43:05;14.10;;;4.70;;
2872;SDS011;1444;49.166;7.312;2023-11-21T13:45:34;8.43;;;3.13;;
2872;SDS011;1444;49.166;7.312;2023-11-21T13:48:01;6.43;;;3.60;;
2872;SDS011;1444;49.166;7.312;2023-11-21T13:50:31;4.63;;;4.13;;
2872;SDS011;1444;49.166;7.312;2023-11-21T13:53:00;6.97;;;5.30;;
2872;SDS011;1444;49.166;7.312;2023-11-21T13:55:29;19.90;;;4.30;;
2872;SDS011;1444;49.166;7.312;2023-11-21T13:57:57;6.17;;;4.83;;
2872;SDS011;1444;49.166;7.312;2023-11-21T14:00:24;6.00;;;3.50;;
2872;SDS011;1444;49.166;7.312;2023-11-21T14:03:07;4.97;;;3.77;;
2872;SDS011;1444;49.166;7.312;2023-11-21T14:05:42;3.30;;;2.83;;
2872;SDS011;1444;49.166;7.312;2023-11-21T14:08:12;5.80;;;3.47;;
2872;SDS011;1444;49.166;7.312;2023-11-21T14:10:42;9.83;;;3.87;;
2872;SDS011;1444;49.166;7.312;2023-11-21T14:13:12;4.67;;;3.13;;
2872;SDS011;1444;49.166;7.312;2023-11-21T14:15:41;5.60;;;4.03;;
2872;SDS011;1444;49.166;7.312;2023-11-21T14:18:10;20.33;;;4.57;;
2872;SDS011;1444;49.166;7.312;2023-11-21T14:20:39;6.10;;;4.60;;
2872;SDS011;1444;49.166;7.312;2023-11-21T14:23:07;12.70;;;4.90;;
2872;SDS011;1444;49.166;7.312;2023-11-21T14:25:36;7.33;;;4.53;;
2872;SDS011;1444;49.166;7.312;2023-11-21T14:28:04;6.50;;;5.53;;
2872;SDS011;1444;49.166;7.312;2023-11-21T14:30:32;10.73;;;6.53;;
2872;SDS011;1444;49.166;7.312;2023-11-21T14:33:01;6.07;;;5.47;;
2872;SDS011;1444;49.166;7.312;2023-11-21T14:35:28;12.47;;;6.47;;
2872;SDS011;1444;49.166;7.312;2023-11-21T14:37:57;9.80;;;7.60;;
2872;SDS011;1444;49.166;7.312;2023-11-21T14:40:26;8.67;;;6.63;;
2872;SDS011;1444;49.166;7.312;2023-11-21T14:42:59;14.97;;;12.03;;
2872;SDS011;1444;49.166;7.312;2023-11-21T14:45:26;7.90;;;7.13;;
2872;SDS011;1444;49.166;7.312;2023-11-21T14:47:54;7.13;;;5.87;;
2872;SDS011;1444;49.166;7.312;2023-11-21T14:50:31;15.60;;;5.80;;
2872;SDS011;1444;49.166;7.312;2023-11-21T14:53:15;5.00;;;4.20;;
2872;SDS011;1444;49.166;7.312;2023-11-21T14:55:54;6.30;;;4.63;;
2872;SDS011;1444;49.166;7.312;2023-11-21T14:58:25;18.20;;;6.37;;
2872;SDS011;1444;49.166;7.312;2023-11-21T15:00:52;13.10;;;6.30;;
2872;SDS011;1444;49.166;7.312;2023-11-21T15:03:23;9.97;;;6.10;;
2872;SDS011;1444;49.166;7.312;2023-11-21T15:06:14;9.03;;;7.20;;
2872;SDS011;1444;49.166;7.312;2023-11-21T15:08:49;10.60;;;8.03;;
2872;SDS011;1444;49.166;7.312;2023-11-21T15:11:33;15.53;;;6.77;;
2872;SDS011;1444;49.166;7.312;2023-11-21T15:14:01;7.17;;;5.87;;
2872;SDS011;1444;49.166;7.312;2023-11-21T15:16:32;6.93;;;5.67;;
2872;SDS011;1444;49.166;7.312;2023-11-21T15:18:58;8.60;;;5.80;;
2872;SDS011;1444;49.166;7.312;2023-11-21T15:21:25;8.97;;;5.70;;